Time;durP1;ratioP1;P1;durP2;ratioP2;P2;SDS_P1;SDS_P2;PMS_P1;PMS_P2;Temp;Humidity;BMP_temperature;BMP_pressure;BME280_temperature;BME280_humidity;BME280_pressure;Samples;Min_cycle;Max_cycle;Signal;HPM_P1;HPM_P2
2022/01/22 00:01:05;;;;;;;5.50;2.67;;;;;;;-0.91;58.96;99715.78;4316551;33;34386;-72
2022/01/22 00:03:34;;;;;;;8.15;2.20;;;;;;;-1.00;59.10;99722.25;4304206;33;33430;-72
2022/01/22 00:06:02;;;;;;;4.87;1.92;;;;;;;-1.04;58.99;99696.47;4292737;33;33868;-73
2022/01/22 00:08:29;;;;;;;2.85;1.87;;;;;;;-1.04;58.45;99705.03;4304811;33;35916;-73
2022/01/22 00:10:58;;;;;;;4.57;1.92;;;;;;;-0.91;58.26;99688.53;4292703;33;34527;-71
2022/01/22 00:16:12;;;;;;;3.55;2.40;;;;;;;-1.16;58.62;99712.19;4305688;33;34002;-72
2022/01/22 00:18:40;;;;;;;3.28;1.35;;;;;;;-1.13;58.69;99716.53;4300027;33;35169;-73
2022/01/22 00:21:08;;;;;;;3.33;2.47;;;;;;;-1.12;58.51;99719.16;4290985;33;35203;-71
2022/01/22 00:23:39;;;;;;;2.92;1.95;;;;;;;-0.86;57.77;99714.28;4304678;33;32007;-78
2022/01/22 00:26:06;;;;;;;4.35;2.05;;;;;;;-0.86;57.82;99721.94;4304486;33;32947;-73
2022/01/22 00:28:34;;;;;;;2.30;1.73;;;;;;;-1.04;57.97;99716.94;4303356;33;35034;-72
2022/01/22 00:31:02;;;;;;;8.88;1.83;;;;;;;-0.90;57.71;99709.84;4305648;33;34462;-72
2022/01/22 00:33:30;;;;;;;3.28;2.05;;;;;;;-0.79;57.65;99708.59;4304687;33;34425;-71
2022/01/22 00:35:57;;;;;;;3.33;1.95;;;;;;;-0.89;57.53;99706.47;4304751;33;33996;-73
2022/01/22 00:38:25;;;;;;;6.57;1.75;;;;;;;-0.61;57.21;99693.12;4304708;33;34964;-73
2022/01/22 00:40:53;;;;;;;6.85;3.50;;;;;;;-0.42;56.42;99697.28;4304778;33;34439;-73
2022/01/22 00:43:21;;;;;;;2.83;1.70;;;;;;;-0.32;55.96;99688.25;4304663;33;34342;-72
2022/01/22 00:45:49;;;;;;;2.22;1.37;;;;;;;-0.67;56.98;99703.09;4316462;33;33214;-73
2022/01/22 00:48:18;;;;;;;3.45;1.62;;;;;;;-0.46;56.49;99692.84;4304607;33;35251;-72
2022/01/22 00:50:47;;;;;;;2.15;1.80;;;;;;;-0.48;56.72;99700.44;4291517;33;33803;-73
2022/01/22 00:53:15;;;;;;;1.70;1.40;;;;;;;-0.30;56.04;99689.19;4304563;33;33352;-72
2022/01/22 00:55:44;;;;;;;2.35;1.70;;;;;;;-0.48;56.57;99669.75;4315997;33;32324;-73
2022/01/22 00:58:12;;;;;;;3.08;1.80;;;;;;;-0.61;57.07;99680.34;4304654;33;33363;-73
2022/01/22 01:00:40;;;;;;;2.28;1.67;;;;;;;-0.60;57.18;99677.84;4304546;33;34538;-71
2022/01/22 01:03:09;;;;;;;2.33;1.60;;;;;;;-0.56;56.93;99671.16;4304643;33;33798;-73
2022/01/22 01:05:37;;;;;;;2.30;1.85;;;;;;;-0.10;56.59;99669.47;4305335;33;33887;-72
2022/01/22 01:08:05;;;;;;;4.97;1.92;;;;;;;-0.31;56.30;99667.84;4304427;33;35146;-72
2022/01/22 01:10:33;;;;;;;2.37;1.70;;;;;;;-0.55;58.03;99660.09;4305313;33;34242;-72
2022/01/22 01:13:00;;;;;;;1.58;1.48;;;;;;;-0.27;57.07;99654.34;4304305;33;33449;-72
2022/01/22 01:34:26;;;;;;;3.40;1.45;;;;;;;-0.54;58.64;99592.78;4304879;33;34061;-72
2022/01/22 01:36:55;;;;;;;4.05;1.42;;;;;;;-0.46;58.33;99598.19;4305388;33;33898;-72
2022/01/22 01:39:28;;;;;;;1.67;1.45;;;;;;;-0.41;58.61;99595.00;4304281;33;34705;-72
2022/01/22 01:42:05;;;;;;;3.50;1.58;;;;;;;-0.48;59.19;99581.91;4305159;33;34526;-73
2022/01/22 01:44:34;;;;;;;3.87;1.37;;;;;;;-0.74;59.92;99578.38;4304595;33;34190;-73
2022/01/22 01:47:04;;;;;;;2.55;1.73;;;;;;;-0.21;58.95;99582.94;4292379;33;34086;-73
2022/01/22 01:49:32;;;;;;;2.58;1.50;;;;;;;-0.26;58.58;99569.09;4304535;33;34412;-72
2022/01/22 01:52:03;;;;;;;4.03;1.60;;;;;;;-0.32;58.90;99558.63;4305360;33;34966;-73
2022/01/22 01:54:47;;;;;;;3.72;2.20;;;;;;;-0.37;58.70;99552.50;4289815;33;34035;-73
2022/01/22 01:59:53;;;;;;;1.92;1.42;;;;;;;-0.08;57.73;99552.66;4293009;33;35151;-73
2022/01/22 02:02:24;;;;;;;1.90;1.17;;;;;;;0.18;56.61;99541.63;4291707;33;34406;-72
2022/01/22 02:04:53;;;;;;;2.37;1.40;;;;;;;0.13;56.60;99544.88;4289934;33;34046;-73
2022/01/22 02:07:21;;;;;;;1.98;1.20;;;;;;;0.34;56.07;99526.78;4290651;33;34495;-72
2022/01/22 02:09:51;;;;;;;2.83;1.55;;;;;;;0.27;55.70;99523.16;4304847;33;35916;-73
2022/01/22 02:13:27;;;;;;;1.10;1.00;;;;;;;0.03;56.13;99519.75;4291971;33;34497;-73
2022/01/22 02:23:44;;;;;;;1.20;1.10;;;;;;;0.24;55.15;99509.38;4304339;33;34586;-72
2022/01/22 02:26:14;;;;;;;3.10;2.28;;;;;;;-0.28;56.44;99504.22;4305143;33;34149;-72
2022/01/22 02:28:51;;;;;;;3.87;1.52;;;;;;;-0.11;56.37;99499.66;4290996;33;34804;-73
2022/01/22 02:36:57;;;;;;;1.40;1.30;;;;;;;0.14;55.73;99487.69;4313427;33;33291;-72
2022/01/22 02:39:38;;;;;;;4.07;1.87;;;;;;;0.11;55.62;99485.91;4304037;33;34700;-73
2022/01/22 02:42:06;;;;;;;2.80;1.55;;;;;;;-0.08;56.20;99473.31;4303977;33;35741;-72
2022/01/22 02:44:43;;;;;;;2.92;1.50;;;;;;;-0.38;56.65;99481.66;4290836;33;34433;-72
2022/01/22 02:47:11;;;;;;;;;;;;;;;-0.28;56.68;99493.09;4293076;33;33542;-73
2022/01/22 02:49:39;;;;;;;3.45;1.73;;;;;;;-0.10;56.52;99483.50;4302274;33;35134;-73
2022/01/22 02:52:08;;;;;;;2.65;1.85;;;;;;;0.37;55.15;99496.13;4304990;33;35205;-73
2022/01/22 02:54:38;;;;;;;5.55;1.92;;;;;;;-0.03;56.04;99477.78;4301948;33;34319;-73
2022/01/22 02:57:08;;;;;;;5.45;1.75;;;;;;;0.51;54.89;99479.53;4304521;33;33020;-72
2022/01/22 02:59:36;;;;;;;2.80;1.85;;;;;;;-0.05;56.54;99486.22;4304069;33;33280;-73
2022/01/22 03:02:05;;;;;;;3.65;1.75;;;;;;;-0.14;56.98;99481.66;4304019;33;35835;-72
2022/01/22 03:04:33;;;;;;;2.37;1.40;;;;;;;0.28;55.77;99475.34;4303596;33;34172;-73
2022/01/22 03:07:01;;;;;;;2.33;1.73;;;;;;;0.48;55.88;99463.19;4291563;33;33635;-72
2022/01/22 03:09:32;;;;;;;3.53;1.77;;;;;;;0.71;55.26;99461.34;4303936;33;33817;-72
2022/01/22 03:20:03;;;;;;;3.35;2.05;;;;;;;0.72;55.77;99452.81;4303604;33;33839;-72
2022/01/22 03:22:54;;;;;;;2.67;1.80;;;;;;;0.36;56.64;99449.16;4304427;33;35884;-73
2022/01/22 03:28:07;;;;;;;4.80;1.73;;;;;;;0.67;56.01;99446.69;4292060;33;34123;-73
2022/01/22 03:30:35;;;;;;;2.55;1.62;;;;;;;0.43;56.89;99439.13;4302495;33;32093;-74
2022/01/22 03:33:02;;;;;;;2.78;1.70;;;;;;;0.59;56.13;99432.78;4303637;33;35667;-73
2022/01/22 03:35:34;;;;;;;1.67;1.20;;;;;;;0.14;57.54;99437.37;4304435;33;34465;-72
2022/01/22 03:38:04;;;;;;;3.85;1.87;;;;;;;0.75;55.88;99425.59;4303663;33;33411;-73
2022/01/22 03:40:33;;;;;;;3.83;1.55;;;;;;;0.41;56.33;99425.38;4303258;33;33597;-74
2022/01/22 03:43:01;;;;;;;3.42;1.37;;;;;;;1.25;55.04;99433.03;4303255;33;35025;-73
2022/01/22 03:45:30;;;;;;;2.35;1.37;;;;;;;0.83;55.50;99430.97;4291367;33;35254;-72
2022/01/22 03:47:58;;;;;;;5.55;2.22;;;;;;;0.49;56.75;99435.03;4302343;33;34374;-73
2022/01/22 03:50:27;;;;;;;3.60;1.60;;;;;;;0.42;57.10;99420.31;4303173;33;33795;-73
2022/01/22 03:52:55;;;;;;;1.42;1.33;;;;;;;0.60;56.76;99416.56;4302283;33;35008;-72
2022/01/22 03:55:41;;;;;;;2.22;1.67;;;;;;;0.64;56.96;99416.72;4303915;33;35187;-74
2022/01/22 03:58:13;;;;;;;1.80;1.48;;;;;;;0.44;58.20;99420.34;4312216;33;32109;-72
2022/01/22 04:00:42;;;;;;;2.62;1.70;;;;;;;0.34;62.90;99419.22;4302976;33;33950;-72
2022/01/22 04:03:35;;;;;;;3.12;1.85;;;;;;;-0.03;65.00;99418.91;4302931;33;35044;-72
2022/01/22 04:08:40;;;;;;;1.62;1.27;;;;;;;-0.54;70.96;99412.91;4302980;33;33414;-72
2022/01/22 04:11:13;;;;;;;5.32;2.08;;;;;;;-0.54;71.08;99413.75;4302796;33;33993;-73
2022/01/22 04:13:43;;;;;;;3.60;1.85;;;;;;;-0.28;70.66;99394.19;4302928;33;35289;-74
2022/01/22 04:16:13;;;;;;;6.07;2.17;;;;;;;-0.36;71.66;99392.19;4291065;33;34337;-72
2022/01/22 04:27:10;;;;;;;3.70;2.42;;;;;;;-0.35;75.74;99397.38;4312591;33;34442;-72
2022/01/22 04:29:40;;;;;;;3.10;2.15;;;;;;;-0.47;78.40;99394.38;4309863;33;33729;-71
2022/01/22 04:32:08;;;;;;;2.65;1.92;;;;;;;-0.14;77.50;99386.06;4305393;33;33914;-72
2022/01/22 04:34:36;;;;;;;2.00;1.75;;;;;;;0.03;76.78;99382.38;4304624;33;35172;-83
2022/01/22 04:37:05;;;;;;;4.80;2.25;;;;;;;0.07;77.49;99384.25;4305234;33;34597;-71
2022/01/22 04:39:36;;;;;;;2.42;2.03;;;;;;;-0.74;81.04;99374.72;4291549;33;34083;-82
2022/01/22 04:42:07;;;;;;;4.60;2.12;;;;;;;0.10;79.40;99373.22;4304524;33;34795;-72
2022/01/22 04:44:44;;;;;;;2.58;1.77;;;;;;;0.23;78.68;99374.44;4303629;33;35118;-71
2022/01/22 04:47:20;;;;;;;1.95;1.60;;;;;;;-0.21;81.08;99367.97;4304582;33;35328;-73
2022/01/22 04:54:57;;;;;;;4.15;2.60;;;;;;;0.32;78.30;99354.28;4291333;33;33412;-74
2022/01/22 04:55:28;;;;;;;3.35;2.60;;;;;;;0.17;78.76;99360.63;4305494;33;35779;-88
2022/01/22 04:57:57;;;;;;;3.83;2.58;;;;;;;0.34;78.30;99357.75;4304634;33;34035;-74
2022/01/22 05:00:31;;;;;;;5.68;2.25;;;;;;;0.21;79.18;99358.19;4316148;33;33972;-72
2022/01/22 05:03:03;;;;;;;3.75;2.40;;;;;;;0.44;77.75;99362.34;4314516;33;33873;-72
2022/01/22 05:05:32;;;;;;;5.12;2.80;;;;;;;0.54;78.42;99346.37;4291513;33;35953;-79
2022/01/22 05:08:00;;;;;;;4.43;2.55;;;;;;;0.37;78.47;99358.72;4291501;33;34643;-73
2022/01/22 05:10:30;;;;;;;4.37;2.58;;;;;;;0.04;80.21;99361.09;4305167;33;33629;-72
2022/01/22 05:12:59;;;;;;;3.03;2.12;;;;;;;0.44;80.01;99357.22;4304393;33;34050;-82
2022/01/22 05:15:28;;;;;;;6.68;2.80;;;;;;;1.21;76.40;99361.94;4304102;33;34645;-82
2022/01/22 05:17:57;;;;;;;4.55;2.75;;;;;;;0.57;77.63;99361.00;4304557;33;34350;-72
2022/01/22 05:20:35;;;;;;;4.55;2.42;;;;;;;1.14;75.73;99354.91;4305348;33;32706;-73
2022/01/22 05:23:13;;;;;;;3.92;2.47;;;;;;;0.62;77.64;99362.00;4295064;33;33853;-72
2022/01/22 05:25:50;;;;;;;4.97;2.90;;;;;;;0.74;77.61;99362.34;4290510;33;35052;-72
2022/01/22 05:36:58;;;;;;;2.72;1.95;;;;;;;1.43;76.57;99363.38;4304691;33;35507;-71
2022/01/22 05:39:29;;;;;;;4.95;2.67;;;;;;;0.38;81.28;99365.56;4291687;33;35119;-72
2022/01/22 05:41:59;;;;;;;4.78;2.80;;;;;;;0.93;79.07;99362.88;4302817;33;32994;-72
2022/01/22 05:44:30;;;;;;;2.78;2.30;;;;;;;0.09;81.86;99359.56;4304106;33;33755;-84
2022/01/22 05:47:04;;;;;;;4.95;2.67;;;;;;;0.98;79.87;99355.31;4292366;33;34925;-72
2022/01/22 05:49:39;;;;;;;7.00;2.85;;;;;;;0.70;80.60;99357.09;4291649;33;34479;-83
2022/01/22 05:52:11;;;;;;;3.70;2.62;;;;;;;0.85;80.09;99347.28;4292748;33;33589;-72
2022/01/22 06:00:08;;;;;;;4.78;2.87;;;;;;;1.24;77.62;99350.91;4304261;33;34338;-71
2022/01/22 06:02:46;;;;;;;3.55;2.15;;;;;;;1.06;78.95;99353.81;4304018;33;34324;-71
2022/01/22 06:05:15;;;;;;;4.82;2.22;;;;;;;0.88;78.88;99355.06;4315205;33;34641;-77
2022/01/22 06:07:43;;;;;;;28.95;12.85;;;;;;;1.19;77.88;99353.34;4291180;33;34574;-91
2022/01/22 06:10:17;;;;;;;28.40;15.70;;;;;;;0.82;79.61;99362.56;4303873;33;34865;-82
2022/01/22 06:13:43;;;;;;;57.60;34.05;;;;;;;0.29;81.35;99366.97;4303937;33;33537;-72
2022/01/22 06:15:34;;;;;;;30.10;18.60;;;;;;;0.38;82.57;99369.81;4285058;33;34695;-72
2022/01/22 06:18:05;;;;;;;8.02;5.12;;;;;;;0.92;81.33;99368.84;4304394;33;34334;-74
2022/01/22 06:20:33;;;;;;;7.53;5.35;;;;;;;0.78;79.70;99373.56;4305193;33;34539;-73
2022/01/22 06:23:02;;;;;;;4.25;2.78;;;;;;;0.69;80.86;99376.72;4291013;33;34235;-73
2022/01/22 06:25:31;;;;;;;5.37;3.62;;;;;;;0.74;80.53;99384.53;4304946;33;33802;-73
2022/01/22 06:28:01;;;;;;;2.33;2.08;;;;;;;0.74;79.65;99380.31;4302819;33;35868;-73
2022/01/22 06:30:29;;;;;;;3.15;2.20;;;;;;;1.02;79.70;99377.66;4304983;33;34597;-74
2022/01/22 06:32:57;;;;;;;1.92;1.12;;;;;;;0.44;82.08;99377.69;4303549;33;33747;-73
2022/01/22 06:35:26;;;;;;;2.30;1.90;;;;;;;1.00;79.68;99387.00;4304051;33;33849;-73
2022/01/22 06:37:54;;;;;;;3.33;1.95;;;;;;;1.12;77.98;99377.06;4290597;33;35071;-74
2022/01/22 06:42:54;;;;;;;2.70;1.85;;;;;;;0.87;79.34;99407.16;4302998;33;33338;-74
2022/01/22 06:45:24;;;;;;;2.60;2.10;;;;;;;1.04;77.91;99399.06;4294885;33;33043;-74
2022/01/22 06:47:53;;;;;;;4.50;2.37;;;;;;;0.80;79.63;99412.06;4278744;33;35188;-72
2022/01/22 06:50:22;;;;;;;2.70;1.73;;;;;;;0.75;78.65;99406.78;4291593;33;34510;-74
2022/01/22 06:52:58;;;;;;;2.25;1.92;;;;;;;1.22;77.09;99407.28;4291277;33;33424;-73
2022/01/22 06:55:40;;;;;;;2.03;1.83;;;;;;;0.93;78.51;99403.88;4292674;33;33924;-74
2022/01/22 06:58:09;;;;;;;2.72;1.70;;;;;;;0.85;78.37;99400.25;4303928;33;35070;-75
2022/01/22 07:00:37;;;;;;;4.45;2.30;;;;;;;1.25;77.56;99398.78;4304862;33;34479;-70
2022/01/22 07:03:05;;;;;;;2.85;2.25;;;;;;;0.78;78.16;99396.63;4291307;33;33539;-74
2022/01/22 07:05:34;;;;;;;4.15;2.25;;;;;;;0.69;79.31;99397.22;4303555;33;34713;-75
2022/01/22 07:08:02;;;;;;;19.00;12.07;;;;;;;0.49;80.17;99386.38;4303699;33;35974;-74
2022/01/22 07:10:32;;;;;;;7.60;5.55;;;;;;;0.63;79.17;99379.09;4303854;33;34581;-77
2022/01/22 07:13:01;;;;;;;4.45;3.08;;;;;;;0.32;80.85;99383.31;4303790;33;33418;-76
2022/01/22 07:15:30;;;;;;;4.85;3.17;;;;;;;0.98;77.24;99381.81;4304491;33;34799;-75
2022/01/22 07:18:01;;;;;;;5.07;2.22;;;;;;;1.20;76.46;99405.50;4291036;33;35236;-76
2022/01/22 07:20:39;;;;;;;4.07;2.58;;;;;;;1.03;76.00;99413.59;4304675;33;35273;-76
2022/01/22 07:23:18;;;;;;;4.45;2.67;;;;;;;1.17;76.72;99416.53;4302313;33;33775;-76
2022/01/22 07:25:47;;;;;;;4.90;2.90;;;;;;;0.82;75.83;99425.78;4292386;33;34793;-76
2022/01/22 07:28:16;;;;;;;5.35;3.15;;;;;;;0.64;77.90;99431.25;4303457;33;35076;-73
2022/01/22 07:30:46;;;;;;;5.53;3.05;;;;;;;0.92;77.21;99430.37;4304075;33;34621;-71
2022/01/22 07:33:17;;;;;;;2.75;1.62;;;;;;;1.11;75.50;99432.62;4303352;33;32670;-71
2022/01/22 07:35:46;;;;;;;5.43;2.83;;;;;;;1.62;73.18;99436.56;4304489;33;33187;-74
2022/01/22 07:38:14;;;;;;;3.83;2.37;;;;;;;1.04;74.64;99440.09;4302377;33;35112;-76
2022/01/22 07:40:42;;;;;;;4.78;2.50;;;;;;;1.09;74.28;99433.41;4314984;33;34430;-75
2022/01/22 07:43:11;;;;;;;4.68;2.25;;;;;;;1.26;74.77;99432.19;4302549;33;33484;-74
2022/01/22 07:45:43;;;;;;;3.45;2.17;;;;;;;1.75;73.54;99436.91;4289913;33;32357;-75
2022/01/22 07:48:14;;;;;;;4.57;2.75;;;;;;;2.03;72.46;99434.22;4290629;33;35031;-74
2022/01/22 07:50:45;;;;;;;5.12;2.62;;;;;;;1.67;73.97;99427.31;4304094;33;32879;-74
2022/01/22 07:53:14;;;;;;;4.60;2.85;;;;;;;1.81;72.45;99422.53;4303186;33;33463;-74
2022/01/22 07:55:42;;;;;;;5.82;2.85;;;;;;;2.24;71.13;99421.03;4303400;33;33969;-74
2022/01/22 07:58:11;;;;;;;3.70;2.45;;;;;;;1.59;73.64;99425.34;4302886;33;35044;-75
2022/01/22 08:00:39;;;;;;;6.28;3.00;;;;;;;1.38;74.62;99408.56;4303967;33;35216;-73
2022/01/22 08:03:09;;;;;;;4.60;2.67;;;;;;;1.54;74.08;99404.72;4304403;33;33377;-71
2022/01/22 08:05:38;;;;;;;4.47;2.67;;;;;;;1.72;73.38;99408.59;4305279;33;34134;-75
2022/01/22 08:08:13;;;;;;;7.80;4.00;;;;;;;1.42;75.05;99414.66;4305026;33;33522;-75
2022/01/22 08:10:44;;;;;;;8.00;5.20;;;;;;;1.31;74.96;99404.97;4305891;33;32950;-76
2022/01/22 08:13:12;;;;;;;7.22;3.20;;;;;;;1.83;72.82;99404.59;4304988;33;33665;-75
2022/01/22 08:15:40;;;;;;;8.80;4.47;;;;;;;2.37;71.30;99409.34;4304761;33;33983;-75
2022/01/22 08:18:09;;;;;;;6.60;3.30;;;;;;;1.74;73.68;99409.50;4303211;33;35045;-75
2022/01/22 08:20:37;;;;;;;6.07;3.20;;;;;;;1.87;73.04;99416.66;4315409;33;34460;-74
2022/01/22 08:23:07;;;;;;;6.15;3.62;;;;;;;1.46;74.36;99419.91;4304925;33;33478;-73
2022/01/22 08:25:40;;;;;;;6.85;4.65;;;;;;;2.03;72.24;99423.06;4306034;33;33097;-75
2022/01/22 08:30:56;;;;;;;6.07;2.92;;;;;;;1.82;73.26;99428.56;4305881;33;34134;-74
2022/01/22 08:35:53;;;;;;;7.55;3.97;;;;;;;0.96;76.13;99423.63;4305688;33;34626;-73
2022/01/22 08:38:25;;;;;;;6.18;3.87;;;;;;;1.38;74.48;99431.66;4304643;33;36005;-73
2022/01/22 08:40:54;;;;;;;5.65;2.25;;;;;;;1.17;74.94;99447.31;4305780;33;34332;-73
2022/01/22 08:43:25;;;;;;;7.35;3.70;;;;;;;1.22;75.14;99461.16;4291047;33;34491;-73
2022/01/22 08:45:54;;;;;;;8.23;4.20;;;;;;;1.12;75.66;99470.25;4303912;33;33979;-72
2022/01/22 08:48:23;;;;;;;4.90;3.12;;;;;;;1.77;73.11;99476.34;4291553;33;35052;-75
2022/01/22 08:50:52;;;;;;;5.20;2.55;;;;;;;1.93;72.17;99468.19;4305613;33;35439;-74
2022/01/22 08:53:40;;;;;;;5.85;3.67;;;;;;;2.85;69.38;99470.41;4291721;33;32699;-74
2022/01/22 08:56:09;;;;;;;7.60;3.83;;;;;;;3.34;67.67;99480.03;4305659;33;34026;-73
2022/01/22 08:58:37;;;;;;;6.32;3.85;;;;;;;4.12;63.79;99478.06;4304853;33;35169;-73
2022/01/22 09:01:07;;;;;;;5.75;3.22;;;;;;;4.35;63.26;99486.19;4305511;33;35252;-75
2022/01/22 09:03:35;;;;;;;5.50;3.35;;;;;;;4.84;60.36;99491.25;4290914;33;33716;-73
2022/01/22 09:06:05;;;;;;;4.85;2.70;;;;;;;5.53;58.22;99488.72;4303164;33;34081;-81
2022/01/22 09:08:36;;;;;;;6.53;2.97;;;;;;;5.96;57.26;99484.91;4304343;33;35130;-83
2022/01/22 09:11:04;;;;;;;3.97;2.58;;;;;;;7.26;52.92;99493.69;4304239;33;34541;-74
2022/01/22 09:13:37;;;;;;;4.62;2.58;;;;;;;6.25;52.93;99498.13;4302933;33;33454;-74
2022/01/22 09:16:06;;;;;;;5.22;3.28;;;;;;;5.11;56.46;99514.84;4292251;33;34055;-75
2022/01/22 09:18:34;;;;;;;4.82;2.80;;;;;;;4.69;57.93;99508.22;4304293;33;35772;-75
2022/01/22 09:21:04;;;;;;;4.75;2.65;;;;;;;5.25;56.76;99509.03;4307555;33;34192;-74
2022/01/22 09:23:33;;;;;;;4.35;2.83;;;;;;;5.02;57.81;99512.16;4314878;33;33439;-73
2022/01/22 09:26:03;;;;;;;4.82;3.45;;;;;;;4.96;57.49;99522.41;4292339;33;33897;-74
2022/01/22 09:28:32;;;;;;;6.07;2.72;;;;;;;5.78;55.21;99531.22;4314923;33;35702;-75
2022/01/22 09:31:00;;;;;;;3.95;2.45;;;;;;;5.63;55.57;99537.94;4304995;33;34424;-83
2022/01/22 09:33:28;;;;;;;8.10;5.05;;;;;;;5.94;55.38;99546.03;4304489;33;34205;-85
2022/01/22 09:35:56;;;;;;;4.65;2.95;;;;;;;6.94;52.19;99541.81;4305326;33;33799;-73
2022/01/22 09:38:27;;;;;;;4.28;2.85;;;;;;;5.88;54.32;99554.59;4303676;33;35019;-75
2022/01/22 09:40:58;;;;;;;3.40;2.47;;;;;;;5.61;55.56;99562.00;4277861;33;34440;-80
2022/01/22 09:43:26;;;;;;;3.87;2.85;;;;;;;5.23;56.16;99565.81;4289147;33;33522;-73
2022/01/22 09:45:55;;;;;;;5.53;3.08;;;;;;;5.96;52.88;99571.94;4304957;33;34150;-82
2022/01/22 09:48:23;;;;;;;5.28;3.37;;;;;;;4.74;57.10;99558.16;4305083;33;35153;-76
2022/01/22 09:50:51;;;;;;;7.22;3.40;;;;;;;6.61;52.57;99555.34;4289989;33;36563;-76
2022/01/22 09:53:19;;;;;;;4.45;3.00;;;;;;;6.38;52.34;99560.31;4290637;33;34284;-84
2022/01/22 09:55:48;;;;;;;5.15;2.97;;;;;;;7.86;48.75;99556.12;4302129;33;34641;-78
2022/01/22 09:58:16;;;;;;;6.45;2.83;;;;;;;7.48;48.39;99565.47;4304089;33;35077;-76
2022/01/22 10:00:45;;;;;;;4.68;2.67;;;;;;;7.03;49.67;99561.72;4291106;33;35046;-76
2022/01/22 10:03:17;;;;;;;5.00;3.12;;;;;;;8.60;45.89;99551.13;4292183;33;33445;-80
2022/01/22 10:05:46;;;;;;;7.37;3.17;;;;;;;7.35;47.57;99556.75;4304184;33;33963;-76
2022/01/22 10:08:28;;;;;;;4.50;2.58;;;;;;;7.88;46.66;99557.00;4304870;33;35902;-80
2022/01/22 10:10:59;;;;;;;6.03;3.30;;;;;;;7.98;46.30;99558.78;4289254;33;34532;-74
2022/01/22 10:13:45;;;;;;;6.50;3.28;;;;;;;9.77;43.04;99554.38;4290488;33;35056;-74
2022/01/22 10:16:26;;;;;;;3.55;2.70;;;;;;;10.67;40.41;99554.75;4303210;33;34713;-75
2022/01/22 10:19:09;;;;;;;5.95;2.92;;;;;;;9.41;42.50;99556.25;4303847;33;35788;-75
2022/01/22 10:21:40;;;;;;;7.78;3.20;;;;;;;9.10;42.77;99563.22;4303185;33;34485;-74
2022/01/22 10:24:31;;;;;;;4.97;2.72;;;;;;;11.95;37.65;99551.75;4304014;33;33342;-75
2022/01/22 10:27:21;;;;;;;7.55;3.10;;;;;;;11.06;38.38;99576.16;4304284;33;33796;-75
2022/01/22 10:29:57;;;;;;;4.90;2.60;;;;;;;9.35;42.46;99573.59;4303946;33;35083;-75
2022/01/22 10:32:38;;;;;;;6.22;2.87;;;;;;;10.71;39.07;99576.44;4302368;33;35166;-75
2022/01/22 10:35:18;;;;;;;5.18;3.03;;;;;;;9.75;40.37;99583.88;4292415;33;33472;-75
2022/01/22 10:38:07;;;;;;;4.10;2.33;;;;;;;9.34;41.79;99587.47;4304769;33;33777;-73
2022/01/22 10:40:37;;;;;;;6.35;3.05;;;;;;;9.59;39.91;99598.66;4313735;33;36024;-73
2022/01/22 10:43:43;;;;;;;5.07;2.67;;;;;;;10.51;39.18;99590.47;4315506;33;33740;-75
2022/01/22 10:46:20;;;;;;;6.85;2.70;;;;;;;10.23;39.57;99585.38;4302861;33;33635;-83
2022/01/22 10:48:57;;;;;;;7.10;3.20;;;;;;;10.00;39.39;99592.44;4290964;33;34682;-81
2022/01/22 10:51:28;;;;;;;5.68;3.28;;;;;;;10.34;38.93;99595.78;4290034;33;35060;-86
2022/01/22 10:54:01;;;;;;;4.18;2.33;;;;;;;11.70;36.20;99589.41;4300468;33;33740;-83
2022/01/22 10:56:30;;;;;;;3.47;2.00;;;;;;;9.14;40.30;99595.25;4304611;33;33413;-81
2022/01/22 10:59:03;;;;;;;4.28;2.28;;;;;;;10.35;38.21;99604.47;4303624;33;34301;-81
2022/01/22 11:01:46;;;;;;;5.55;2.35;;;;;;;10.28;38.18;99605.34;4304432;33;35158;-81
2022/01/22 11:04:16;;;;;;;3.85;2.15;;;;;;;9.90;37.89;99609.84;4303495;33;34414;-85
2022/01/22 11:06:50;;;;;;;3.78;2.08;;;;;;;9.76;39.10;99616.81;4291368;33;33592;-85
2022/01/22 11:09:38;;;;;;;2.40;1.87;;;;;;;10.68;36.38;99615.56;4303472;33;33929;-83
2022/01/22 11:12:06;;;;;;;4.05;1.80;;;;;;;9.43;37.89;99621.22;4292018;33;35053;-79
2022/01/22 11:14:37;;;;;;;4.12;2.00;;;;;;;9.33;37.43;99627.31;4278366;33;33795;-80
2022/01/22 11:17:06;;;;;;;3.80;2.17;;;;;;;10.52;36.17;99617.38;4289899;33;33546;-81
2022/01/22 11:19:37;;;;;;;3.45;1.80;;;;;;;11.18;34.84;99622.94;4293331;33;34704;-89
2022/01/22 11:22:09;;;;;;;4.22;2.08;;;;;;;9.60;35.60;99631.56;4290849;33;34288;-83
2022/01/22 11:24:47;;;;;;;3.60;1.90;;;;;;;10.13;36.54;99634.87;4311477;33;34326;-76
2022/01/22 11:27:17;;;;;;;4.15;1.85;;;;;;;9.47;37.66;99638.53;4298490;33;34194;-87
2022/01/22 11:29:52;;;;;;;3.22;1.48;;;;;;;8.99;37.85;99632.50;4303523;33;33190;-89
2022/01/22 11:32:25;;;;;;;2.55;1.65;;;;;;;8.90;36.68;99643.75;4304242;33;35109;-83
2022/01/22 11:34:57;;;;;;;4.70;1.77;;;;;;;8.99;37.01;99645.50;4313380;33;34460;-89
2022/01/22 11:37:33;;;;;;;2.70;1.58;;;;;;;9.05;37.35;99646.38;4304497;33;34440;-76
2022/01/22 11:40:17;;;;;;;1.70;1.50;;;;;;;8.87;37.84;99639.41;4292385;33;33940;-72
2022/01/22 11:42:57;;;;;;;5.18;1.75;;;;;;;8.90;38.42;99634.22;4306209;33;34940;-73
2022/01/22 11:45:51;;;;;;;1.77;1.25;;;;;;;8.29;39.12;99628.88;4292563;33;34480;-73
2022/01/22 11:48:26;;;;;;;4.30;1.90;;;;;;;7.29;39.07;99631.84;4303351;33;33404;-72
2022/01/22 11:51:15;;;;;;;4.75;1.90;;;;;;;7.84;38.99;99635.63;4303255;33;33888;-74
2022/01/22 11:53:54;;;;;;;3.45;1.70;;;;;;;7.12;40.72;99633.44;4305519;33;35151;-77
2022/01/22 11:56:28;;;;;;;2.90;1.75;;;;;;;7.95;39.62;99633.94;4303193;33;34443;-75
2022/01/22 11:58:56;;;;;;;2.78;1.60;;;;;;;8.07;38.63;99623.62;4304729;33;34338;-77
2022/01/22 12:01:56;;;;;;;1.75;1.50;;;;;;;8.82;37.88;99630.75;4304738;33;33984;-77
2022/01/22 12:04:27;;;;;;;1.70;1.30;;;;;;;8.45;36.73;99625.53;4304934;33;35077;-77
2022/01/22 12:07:04;;;;;;;3.30;1.58;;;;;;;7.25;39.09;99649.94;4292784;33;35266;-78
2022/01/22 12:09:40;;;;;;;4.30;1.60;;;;;;;8.03;37.63;99652.13;4304356;33;33548;-77
2022/01/22 12:15:13;;;;;;;2.72;1.77;;;;;;;7.22;39.81;99651.66;4305014;33;35162;-79
2022/01/22 12:18:04;;;;;;;3.15;1.65;;;;;;;7.91;38.09;99648.63;4303802;33;35646;-78
2022/01/22 12:23:12;;;;;;;2.58;1.77;;;;;;;6.67;40.17;99655.44;4305418;33;33955;-81
2022/01/22 12:25:40;;;;;;;;;;;;;;;6.55;41.26;99651.91;4291962;33;34944;-81
2022/01/22 12:28:13;;;;;;;3.65;2.12;;;;;;;6.74;40.58;99642.59;4304680;33;34774;-80
2022/01/22 12:30:51;;;;;;;1.80;1.27;;;;;;;6.08;41.99;99645.31;4304651;33;33614;-80
2022/01/22 12:33:28;;;;;;;3.37;2.15;;;;;;;6.02;42.17;99649.56;4304514;33;34078;-90
2022/01/22 12:35:58;;;;;;;2.72;1.85;;;;;;;5.61;43.53;99662.75;4304658;33;35175;-90
2022/01/22 12:38:37;;;;;;;3.22;2.08;;;;;;;5.47;44.72;99655.69;4305281;33;34627;-90
2022/01/22 12:41:32;;;;;;;2.12;1.42;;;;;;;5.68;43.61;99646.47;4307129;33;33479;-89
2022/01/22 12:44:25;;;;;;;3.05;2.10;;;;;;;5.58;43.18;99653.25;4304554;33;33868;-81
2022/01/22 12:46:57;;;;;;;3.55;1.95;;;;;;;4.97;45.44;99658.31;4300301;33;34689;-83
2022/01/22 12:49:27;;;;;;;3.28;2.00;;;;;;;4.32;46.80;99664.88;4293398;33;35279;-90
2022/01/22 12:51:58;;;;;;;3.60;1.70;;;;;;;4.06;45.97;99656.63;4305587;33;34247;-78
2022/01/22 12:54:39;;;;;;;2.50;1.50;;;;;;;4.66;45.14;99657.78;4304059;33;33819;-76
2022/01/22 12:57:22;;;;;;;2.20;1.40;;;;;;;3.95;46.61;99658.97;4292838;33;34962;-88
2022/01/22 13:00:09;;;;;;;3.22;1.50;;;;;;;4.36;46.03;99671.84;4285379;33;34419;-76
2022/01/22 13:02:41;;;;;;;2.55;1.75;;;;;;;4.67;45.26;99674.13;4313452;33;33362;-77
2022/01/22 13:05:11;;;;;;;2.50;1.60;;;;;;;4.25;45.41;99670.72;4304775;33;33894;-76
2022/01/22 13:07:46;;;;;;;2.67;1.60;;;;;;;3.94;45.68;99670.12;4292798;33;35148;-88
2022/01/22 13:10:15;;;;;;;1.80;1.40;;;;;;;3.95;45.20;99671.88;4304712;33;34652;-86
2022/01/22 13:12:45;;;;;;;4.95;1.80;;;;;;;3.59;46.79;99670.22;4305048;33;33425;-89
2022/01/22 13:15:17;;;;;;;1.55;1.45;;;;;;;3.47;46.45;99685.38;4304265;33;33788;-79
2022/01/22 13:17:52;;;;;;;1.85;1.45;;;;;;;3.64;46.97;99690.94;4304025;33;34988;-85
2022/01/22 13:20:22;;;;;;;7.32;1.70;;;;;;;2.92;48.53;99696.91;4304255;33;34468;-81
2022/01/22 13:22:50;;;;;;;1.75;1.40;;;;;;;3.07;46.91;99689.56;4303921;33;34500;-78
2022/01/22 13:25:19;;;;;;;2.67;1.58;;;;;;;3.04;47.26;99689.50;4301119;33;34181;-77
2022/01/22 13:28:07;;;;;;;2.08;1.77;;;;;;;2.95;47.60;99686.69;4304896;33;35040;-75
2022/01/22 13:30:38;;;;;;;2.83;1.77;;;;;;;2.94;47.07;99703.81;4304298;33;35486;-76
2022/01/22 13:33:15;;;;;;;1.77;1.30;;;;;;;2.52;48.68;99694.13;4304197;33;32192;-80